Simpson, IL (62985)

10:49 PM CDT on April 26, 2017 (GMT -0500)
MDSFI2 | | Change Station

Elev 413 ft 37.44 °N, 88.67 °W | Updated 1 hour ago

Rain
Rain
58.0 °F
Feels Like 58.0 °F
N
7.0
Wind Variable Wind from WNW
Gusts 23.0 mph

Today
High -- | Low -- °F
--% Chance of Precip.
Yesterday
High -- | Low -- °F
Precip. -- in
Pressure 29.60 in
Visibility 3.0 miles
Clouds Scattered Clouds 200 ft
Mostly Cloudy 4300 ft
Overcast 6000 ft
Dew Point 58.0 °F
Humidity 100%
Rainfall 0.74 in
Snow Depth Not available.
6:05 AM 7:40 PM
New Moon, 1% visible
METAR KM30 270335Z AUTO 12004KT 3SM TSRA SCT002 BKN043 OVC060 15/15 A2960 RMK AO2 LTG DSNT ALQS P0011 T01500146
Pressure 29.60 in
Visibility 3.0 miles
Clouds Scattered Clouds 200 ft
Mostly Cloudy 4300 ft
Overcast 6000 ft
Dew Point 58.0 °F
Humidity 100%
Rainfall 0.74 in
Snow Depth Not available.
6:05 AM 7:40 PM
New Moon, 1% visible
METAR KM30 270335Z AUTO 12004KT 3SM TSRA SCT002 BKN043 OVC060 15/15 A2960 RMK AO2 LTG DSNT ALQS P0011 T01500146

Get Severe Weather Alerts

Thanks for signing up!

Be on the lookout for a verification email in your inbox.

You'll start receiving the daily forecast at 8 AM.

×

10-Day Weather Forecast

Almanac

Astronomy

Apr. 26, 2017 Rise Set
Actual Time
Civil Twilight
Nautical Twilight
Astronomical Twilight
Moon
Length of Visible Light
Length of Day
Tomorrow will be .
, % of the Moon is Illuminated

Today's Extremes

State Highs State Lows

Community

WunderPhotos

WunderBlog® & News

Nearby

Air Quality

  Air Quality AQ Index Pollutant
Not available.

Snow Depth

Station Depth Elevation

Earthquake Activity

City Distance Mag. Time & Date
Minimum magnitude displayed is 2.5.

Coastal Water Temperatures

Place Temperature

Stations

Nearby Weather Stations

Station Location Temp. Windchill Dew Point Humidity Wind Precip. Elev Updated Type
                   

Watches & Warnings

There are currently no watches in effect.